sensor_id;sensor_type;location;lat;lon;timestamp;P1;durP1;ratioP1;P2;durP2;ratioP2
38021;SDS011;23832;43.216;27.946;2023-03-09T10:49:08;121.80;;;114.90;;
38021;SDS011;23832;43.216;27.946;2023-03-09T11:01:19;127.82;;;120.35;;
38021;SDS011;23832;43.216;27.946;2023-03-09T11:45:29;136.90;;;128.80;;
38021;SDS011;23832;43.216;27.946;2023-03-09T12:00:09;134.55;;;126.45;;
38021;SDS011;23832;43.216;27.946;2023-03-09T14:06:25;138.50;;;130.40;;
38021;SDS011;23832;43.216;27.946;2023-03-09T14:10:35;157.17;;;146.67;;
38021;SDS011;23832;43.216;27.946;2023-03-09T14:12:39;155.90;;;145.80;;
38021;SDS011;23832;43.216;27.946;2023-03-09T14:14:41;139.05;;;130.55;;
38021;SDS011;23832;43.216;27.946;2023-03-09T14:20:52;137.50;;;129.20;;
38021;SDS011;23832;43.216;27.946;2023-03-09T14:22:54;138.90;;;129.60;;
38021;SDS011;23832;43.216;27.946;2023-03-09T14:24:58;142.00;;;133.30;;
38021;SDS011;23832;43.216;27.946;2023-03-09T14:27:13;139.00;;;130.50;;
38021;SDS011;23832;43.216;27.946;2023-03-09T14:33:32;229.00;;;211.40;;
38021;SDS011;23832;43.216;27.946;2023-03-09T14:35:35;167.83;;;155.00;;
38021;SDS011;23832;43.216;27.946;2023-03-09T14:37:38;143.25;;;134.00;;
38021;SDS011;23832;43.216;27.946;2023-03-09T14:39:40;139.20;;;130.68;;
38021;SDS011;23832;43.216;27.946;2023-03-09T14:41:44;140.75;;;131.40;;
38021;SDS011;23832;43.216;27.946;2023-03-09T14:43:47;142.20;;;133.20;;
38021;SDS011;23832;43.216;27.946;2023-03-09T14:45:49;143.77;;;135.02;;
38021;SDS011;23832;43.216;27.946;2023-03-09T14:47:52;144.15;;;135.05;;
38021;SDS011;23832;43.216;27.946;2023-03-09T14:49:56;140.68;;;132.07;;
38021;SDS011;23832;43.216;27.946;2023-03-09T14:51:58;299.13;;;272.70;;
38021;SDS011;23832;43.216;27.946;2023-03-09T14:54:02;285.27;;;262.40;;
38021;SDS011;23832;43.216;27.946;2023-03-09T14:56:11;177.52;;;165.15;;
38021;SDS011;23832;43.216;27.946;2023-03-09T14:58:14;153.82;;;143.27;;
38021;SDS011;23832;43.216;27.946;2023-03-09T15:00:17;142.52;;;133.02;;
38021;SDS011;23832;43.216;27.946;2023-03-09T15:02:22;141.43;;;133.10;;
38021;SDS011;23832;43.216;27.946;2023-03-09T15:04:24;141.48;;;132.65;;
38021;SDS011;23832;43.216;27.946;2023-03-09T15:06:27;141.07;;;132.43;;
38021;SDS011;23832;43.216;27.946;2023-03-09T15:08:29;140.60;;;131.70;;
38021;SDS011;23832;43.216;27.946;2023-03-09T15:10:31;143.05;;;134.35;;
38021;SDS011;23832;43.216;27.946;2023-03-09T15:12:34;141.90;;;133.35;;
38021;SDS011;23832;43.216;27.946;2023-03-09T15:14:38;138.77;;;130.30;;
38021;SDS011;23832;43.216;27.946;2023-03-09T15:16:41;136.02;;;127.95;;
38021;SDS011;23832;43.216;27.946;2023-03-09T15:18:43;139.35;;;131.13;;
38021;SDS011;23832;43.216;27.946;2023-03-09T15:20:45;141.77;;;133.35;;
38021;SDS011;23832;43.216;27.946;2023-03-09T15:22:48;142.13;;;133.63;;
38021;SDS011;23832;43.216;27.946;2023-03-09T15:24:50;142.68;;;133.98;;
38021;SDS011;23832;43.216;27.946;2023-03-09T15:26:55;143.27;;;134.63;;
38021;SDS011;23832;43.216;27.946;2023-03-09T15:28:58;142.63;;;133.98;;
38021;SDS011;23832;43.216;27.946;2023-03-09T15:31:02;142.25;;;133.73;;
38021;SDS011;23832;43.216;27.946;2023-03-09T15:33:09;139.50;;;131.20;;
38021;SDS011;23832;43.216;27.946;2023-03-09T15:35:13;138.60;;;130.32;;
38021;SDS011;23832;43.216;27.946;2023-03-09T15:37:16;140.68;;;132.40;;
38021;SDS011;23832;43.216;27.946;2023-03-09T15:39:18;141.02;;;132.52;;
38021;SDS011;23832;43.216;27.946;2023-03-09T15:41:20;140.73;;;132.40;;
38021;SDS011;23832;43.216;27.946;2023-03-09T15:43:22;142.82;;;134.32;;
38021;SDS011;23832;43.216;27.946;2023-03-09T15:45:25;137.73;;;129.48;;
38021;SDS011;23832;43.216;27.946;2023-03-09T15:47:28;141.63;;;133.18;;
38021;SDS011;23832;43.216;27.946;2023-03-09T15:49:30;143.30;;;134.82;;
38021;SDS011;23832;43.216;27.946;2023-03-09T15:51:33;142.50;;;133.80;;
38021;SDS011;23832;43.216;27.946;2023-03-09T15:53:35;143.10;;;134.65;;
38021;SDS011;23832;43.216;27.946;2023-03-09T15:55:37;142.05;;;133.45;;
38021;SDS011;23832;43.216;27.946;2023-03-09T15:57:42;140.98;;;132.32;;
38021;SDS011;23832;43.216;27.946;2023-03-09T15:59:44;136.85;;;128.75;;
38021;SDS011;23832;43.216;27.946;2023-03-09T16:01:46;139.98;;;131.80;;
38021;SDS011;23832;43.216;27.946;2023-03-09T16:03:53;139.63;;;131.27;;
38021;SDS011;23832;43.216;27.946;2023-03-09T16:05:55;141.68;;;132.88;;
38021;SDS011;23832;43.216;27.946;2023-03-09T16:07:57;139.02;;;130.73;;
38021;SDS011;23832;43.216;27.946;2023-03-09T16:09:59;143.43;;;134.88;;
38021;SDS011;23832;43.216;27.946;2023-03-09T16:12:01;141.63;;;133.20;;
38021;SDS011;23832;43.216;27.946;2023-03-09T16:14:04;139.57;;;131.05;;
38021;SDS011;23832;43.216;27.946;2023-03-09T16:16:06;146.50;;;137.38;;
38021;SDS011;23832;43.216;27.946;2023-03-09T16:18:10;143.27;;;134.63;;
38021;SDS011;23832;43.216;27.946;2023-03-09T16:20:14;139.50;;;130.73;;
38021;SDS011;23832;43.216;27.946;2023-03-09T16:22:16;143.05;;;134.38;;
38021;SDS011;23832;43.216;27.946;2023-03-09T16:24:18;139.77;;;131.48;;
38021;SDS011;23832;43.216;27.946;2023-03-09T16:26:21;139.63;;;131.43;;
38021;SDS011;23832;43.216;27.946;2023-03-09T16:28:25;143.32;;;134.77;;
38021;SDS011;23832;43.216;27.946;2023-03-09T16:30:29;143.93;;;135.15;;
38021;SDS011;23832;43.216;27.946;2023-03-09T16:32:31;144.45;;;135.73;;
38021;SDS011;23832;43.216;27.946;2023-03-09T16:34:34;140.70;;;132.27;;
38021;SDS011;23832;43.216;27.946;2023-03-09T16:36:37;145.10;;;136.30;;
38021;SDS011;23832;43.216;27.946;2023-03-09T16:38:39;156.27;;;145.75;;
38021;SDS011;23832;43.216;27.946;2023-03-09T16:40:41;144.85;;;135.88;;
38021;SDS011;23832;43.216;27.946;2023-03-09T16:42:44;140.93;;;132.52;;
38021;SDS011;23832;43.216;27.946;2023-03-09T16:44:48;140.15;;;131.52;;
38021;SDS011;23832;43.216;27.946;2023-03-09T16:46:53;141.90;;;133.15;;
38021;SDS011;23832;43.216;27.946;2023-03-09T16:48:56;252.60;;;226.05;;
38021;SDS011;23832;43.216;27.946;2023-03-09T16:51:00;211.45;;;191.10;;
38021;SDS011;23832;43.216;27.946;2023-03-09T16:53:04;255.10;;;227.20;;
38021;SDS011;23832;43.216;27.946;2023-03-09T16:55:07;237.07;;;211.65;;
38021;SDS011;23832;43.216;27.946;2023-03-09T16:57:12;267.10;;;237.77;;
38021;SDS011;23832;43.216;27.946;2023-03-09T16:59:14;192.23;;;175.13;;
38021;SDS011;23832;43.216;27.946;2023-03-09T17:01:17;154.95;;;144.25;;
38021;SDS011;23832;43.216;27.946;2023-03-09T17:03:19;223.55;;;202.23;;
38021;SDS011;23832;43.216;27.946;2023-03-09T17:05:22;224.45;;;203.70;;
38021;SDS011;23832;43.216;27.946;2023-03-09T17:07:24;238.53;;;214.80;;
38021;SDS011;23832;43.216;27.946;2023-03-09T17:09:28;218.65;;;197.95;;
38021;SDS011;23832;43.216;27.946;2023-03-09T17:11:30;174.45;;;160.73;;
38021;SDS011;23832;43.216;27.946;2023-03-09T17:13:32;158.05;;;147.25;;
38021;SDS011;23832;43.216;27.946;2023-03-09T17:15:35;147.15;;;137.88;;
38021;SDS011;23832;43.216;27.946;2023-03-09T17:17:37;148.75;;;139.52;;
38021;SDS011;23832;43.216;27.946;2023-03-09T17:19:39;141.05;;;132.30;;
38021;SDS011;23832;43.216;27.946;2023-03-09T17:21:41;156.63;;;146.35;;
38021;SDS011;23832;43.216;27.946;2023-03-09T17:23:44;174.70;;;161.90;;
38021;SDS011;23832;43.216;27.946;2023-03-09T17:25:49;161.05;;;149.85;;
38021;SDS011;23832;43.216;27.946;2023-03-09T17:27:52;150.07;;;140.27;;
38021;SDS011;23832;43.216;27.946;2023-03-09T17:29:56;152.77;;;142.90;;
38021;SDS011;23832;43.216;27.946;2023-03-09T17:31:58;142.38;;;133.32;;
38021;SDS011;23832;43.216;27.946;2023-03-09T17:34:02;143.25;;;134.32;;
38021;SDS011;23832;43.216;27.946;2023-03-09T17:36:04;149.23;;;139.50;;
38021;SDS011;23832;43.216;27.946;2023-03-09T17:38:09;170.38;;;157.98;;
38021;SDS011;23832;43.216;27.946;2023-03-09T17:40:13;181.55;;;168.05;;
38021;SDS011;23832;43.216;27.946;2023-03-09T17:42:17;166.67;;;154.73;;
38021;SDS011;23832;43.216;27.946;2023-03-09T17:44:19;151.53;;;141.23;;
38021;SDS011;23832;43.216;27.946;2023-03-09T17:46:21;149.68;;;140.23;;
38021;SDS011;23832;43.216;27.946;2023-03-09T17:48:23;147.18;;;137.93;;
38021;SDS011;23832;43.216;27.946;2023-03-09T17:50:25;144.80;;;135.40;;
38021;SDS011;23832;43.216;27.946;2023-03-09T17:52:28;142.60;;;133.82;;
38021;SDS011;23832;43.216;27.946;2023-03-09T17:54:30;147.85;;;138.07;;
38021;SDS011;23832;43.216;27.946;2023-03-09T17:56:32;143.40;;;134.30;;
38021;SDS011;23832;43.216;27.946;2023-03-09T17:58:36;144.85;;;135.73;;
38021;SDS011;23832;43.216;27.946;2023-03-09T18:00:38;145.40;;;136.07;;
38021;SDS011;23832;43.216;27.946;2023-03-09T18:02:40;151.60;;;142.02;;
38021;SDS011;23832;43.216;27.946;2023-03-09T18:04:42;142.40;;;133.13;;
38021;SDS011;23832;43.216;27.946;2023-03-09T18:06:45;145.35;;;136.18;;
38021;SDS011;23832;43.216;27.946;2023-03-09T18:08:48;142.18;;;133.52;;
38021;SDS011;23832;43.216;27.946;2023-03-09T18:10:51;148.48;;;139.43;;
38021;SDS011;23832;43.216;27.946;2023-03-09T18:12:54;141.40;;;132.48;;
38021;SDS011;23832;43.216;27.946;2023-03-09T18:14:59;145.60;;;136.57;;
38021;SDS011;23832;43.216;27.946;2023-03-09T18:17:01;143.68;;;134.98;;
38021;SDS011;23832;43.216;27.946;2023-03-09T18:19:04;145.18;;;136.13;;
38021;SDS011;23832;43.216;27.946;2023-03-09T18:21:09;145.27;;;136.52;;
38021;SDS011;23832;43.216;27.946;2023-03-09T18:23:16;141.82;;;132.98;;
38021;SDS011;23832;43.216;27.946;2023-03-09T18:25:19;141.75;;;133.02;;
38021;SDS011;23832;43.216;27.946;2023-03-09T18:27:21;227.57;;;209.85;;
38021;SDS011;23832;43.216;27.946;2023-03-09T18:29:24;165.05;;;153.88;;
38021;SDS011;23832;43.216;27.946;2023-03-09T18:31:28;148.45;;;139.38;;
38021;SDS011;23832;43.216;27.946;2023-03-09T18:33:32;142.60;;;133.73;;
38021;SDS011;23832;43.216;27.946;2023-03-09T18:35:34;144.60;;;135.32;;
38021;SDS011;23832;43.216;27.946;2023-03-09T18:37:35;143.95;;;135.05;;
38021;SDS011;23832;43.216;27.946;2023-03-09T18:39:37;141.65;;;132.85;;
38021;SDS011;23832;43.216;27.946;2023-03-09T18:41:40;144.80;;;135.65;;
38021;SDS011;23832;43.216;27.946;2023-03-09T18:43:42;141.93;;;133.23;;
38021;SDS011;23832;43.216;27.946;2023-03-09T18:45:46;140.20;;;131.60;;
38021;SDS011;23832;43.216;27.946;2023-03-09T18:47:49;141.88;;;133.23;;
38021;SDS011;23832;43.216;27.946;2023-03-09T18:49:51;141.82;;;133.05;;
38021;SDS011;23832;43.216;27.946;2023-03-09T18:51:53;153.60;;;143.05;;
38021;SDS011;23832;43.216;27.946;2023-03-09T18:53:56;225.70;;;207.18;;
38021;SDS011;23832;43.216;27.946;2023-03-09T18:55:59;155.80;;;145.18;;
38021;SDS011;23832;43.216;27.946;2023-03-09T18:58:02;148.30;;;139.38;;
38021;SDS011;23832;43.216;27.946;2023-03-09T19:00:05;144.38;;;135.43;;
38021;SDS011;23832;43.216;27.946;2023-03-09T19:02:09;141.68;;;132.88;;
38021;SDS011;23832;43.216;27.946;2023-03-09T19:04:14;139.55;;;131.32;;
38021;SDS011;23832;43.216;27.946;2023-03-09T19:06:17;139.73;;;131.35;;
38021;SDS011;23832;43.216;27.946;2023-03-09T19:08:21;145.20;;;136.55;;
38021;SDS011;23832;43.216;27.946;2023-03-09T19:10:23;142.80;;;134.50;;
38021;SDS011;23832;43.216;27.946;2023-03-09T19:12:24;142.90;;;134.40;;
38021;SDS011;23832;43.216;27.946;2023-03-09T19:14:27;142.40;;;134.00;;
38021;SDS011;23832;43.216;27.946;2023-03-09T19:16:29;144.90;;;136.13;;
38021;SDS011;23832;43.216;27.946;2023-03-09T19:18:31;146.30;;;137.30;;
38021;SDS011;23832;43.216;27.946;2023-03-09T19:20:38;141.93;;;133.48;;
38021;SDS011;23832;43.216;27.946;2023-03-09T19:22:40;142.57;;;134.00;;
38021;SDS011;23832;43.216;27.946;2023-03-09T19:24:44;142.60;;;134.20;;
38021;SDS011;23832;43.216;27.946;2023-03-09T19:26:47;141.38;;;132.90;;
38021;SDS011;23832;43.216;27.946;2023-03-09T19:28:49;141.68;;;133.32;;
38021;SDS011;23832;43.216;27.946;2023-03-09T19:30:52;140.45;;;132.13;;
38021;SDS011;23832;43.216;27.946;2023-03-09T19:32:54;144.95;;;136.40;;
38021;SDS011;23832;43.216;27.946;2023-03-09T19:34:57;140.80;;;132.50;;
38021;SDS011;23832;43.216;27.946;2023-03-09T19:37:01;141.82;;;133.43;;
38021;SDS011;23832;43.216;27.946;2023-03-09T19:39:04;188.98;;;175.00;;
38021;SDS011;23832;43.216;27.946;2023-03-09T19:41:07;169.55;;;158.05;;
38021;SDS011;23832;43.216;27.946;2023-03-09T19:43:11;147.07;;;138.07;;
38021;SDS011;23832;43.216;27.946;2023-03-09T19:45:13;144.53;;;135.73;;
38021;SDS011;23832;43.216;27.946;2023-03-09T19:47:15;142.50;;;133.80;;
38021;SDS011;23832;43.216;27.946;2023-03-09T19:49:17;143.35;;;134.55;;
38021;SDS011;23832;43.216;27.946;2023-03-09T19:51:20;143.77;;;135.10;;
38021;SDS011;23832;43.216;27.946;2023-03-09T19:53:24;143.40;;;134.80;;
38021;SDS011;23832;43.216;27.946;2023-03-09T19:55:26;143.30;;;134.30;;
38021;SDS011;23832;43.216;27.946;2023-03-09T19:57:28;142.80;;;133.70;;
38021;SDS011;23832;43.216;27.946;2023-03-09T19:59:31;142.00;;;133.25;;
38021;SDS011;23832;43.216;27.946;2023-03-09T20:01:34;139.25;;;130.82;;
38021;SDS011;23832;43.216;27.946;2023-03-09T20:03:38;141.60;;;132.57;;
38021;SDS011;23832;43.216;27.946;2023-03-09T20:05:41;139.18;;;130.68;;
38021;SDS011;23832;43.216;27.946;2023-03-09T20:07:44;140.25;;;131.52;;
38021;SDS011;23832;43.216;27.946;2023-03-09T20:09:47;142.32;;;133.70;;
38021;SDS011;23832;43.216;27.946;2023-03-09T20:11:49;226.77;;;207.30;;
38021;SDS011;23832;43.216;27.946;2023-03-09T20:13:53;175.70;;;162.70;;
38021;SDS011;23832;43.216;27.946;2023-03-09T20:15:59;145.70;;;136.48;;
38021;SDS011;23832;43.216;27.946;2023-03-09T20:18:01;144.43;;;135.48;;
38021;SDS011;23832;43.216;27.946;2023-03-09T20:20:04;147.00;;;138.00;;
38021;SDS011;23832;43.216;27.946;2023-03-09T20:22:07;140.52;;;132.15;;
38021;SDS011;23832;43.216;27.946;2023-03-09T20:24:09;141.35;;;132.85;;
38021;SDS011;23832;43.216;27.946;2023-03-09T20:26:16;143.57;;;134.90;;
38021;SDS011;23832;43.216;27.946;2023-03-09T20:28:20;140.65;;;131.85;;
38021;SDS011;23832;43.216;27.946;2023-03-09T20:30:22;142.15;;;133.52;;
38021;SDS011;23832;43.216;27.946;2023-03-09T20:32:25;142.05;;;133.40;;
38021;SDS011;23832;43.216;27.946;2023-03-09T20:34:27;142.23;;;133.57;;
38021;SDS011;23832;43.216;27.946;2023-03-09T20:36:30;142.93;;;134.43;;
38021;SDS011;23832;43.216;27.946;2023-03-09T20:38:33;143.15;;;134.25;;
38021;SDS011;23832;43.216;27.946;2023-03-09T20:40:36;141.27;;;132.87;;
38021;SDS011;23832;43.216;27.946;2023-03-09T20:42:39;140.67;;;131.97;;
38021;SDS011;23832;43.216;27.946;2023-03-09T20:46:43;145.10;;;136.20;;
38021;SDS011;23832;43.216;27.946;2023-03-09T20:48:45;144.60;;;135.77;;
38021;SDS011;23832;43.216;27.946;2023-03-09T20:50:48;142.25;;;133.80;;
38021;SDS011;23832;43.216;27.946;2023-03-09T20:52:51;143.10;;;134.40;;
38021;SDS011;23832;43.216;27.946;2023-03-09T20:54:53;145.05;;;136.55;;
38021;SDS011;23832;43.216;27.946;2023-03-09T20:56:55;150.75;;;141.60;;
38021;SDS011;23832;43.216;27.946;2023-03-09T20:59:00;145.85;;;137.15;;
38021;SDS011;23832;43.216;27.946;2023-03-09T21:01:02;140.03;;;131.70;;
38021;SDS011;23832;43.216;27.946;2023-03-09T21:03:04;144.52;;;135.85;;
38021;SDS011;23832;43.216;27.946;2023-03-09T21:05:07;143.40;;;134.80;;
38021;SDS011;23832;43.216;27.946;2023-03-09T21:07:10;143.40;;;134.80;;
38021;SDS011;23832;43.216;27.946;2023-03-09T21:09:12;141.90;;;133.35;;
38021;SDS011;23832;43.216;27.946;2023-03-09T21:11:15;141.90;;;133.40;;
38021;SDS011;23832;43.216;27.946;2023-03-09T21:13:17;143.73;;;135.37;;
38021;SDS011;23832;43.216;27.946;2023-03-09T21:15:21;146.90;;;137.95;;
38021;SDS011;23832;43.216;27.946;2023-03-09T21:17:23;142.40;;;133.90;;
38021;SDS011;23832;43.216;27.946;2023-03-09T21:19:25;144.13;;;135.40;;
38021;SDS011;23832;43.216;27.946;2023-03-09T21:21:27;142.38;;;133.70;;
38021;SDS011;23832;43.216;27.946;2023-03-09T21:23:30;140.68;;;132.48;;
38021;SDS011;23832;43.216;27.946;2023-03-09T21:25:33;142.95;;;134.55;;
38021;SDS011;23832;43.216;27.946;2023-03-09T21:27:36;142.38;;;134.00;;
38021;SDS011;23832;43.216;27.946;2023-03-09T21:29:38;140.55;;;131.95;;
38021;SDS011;23832;43.216;27.946;2023-03-09T21:31:41;138.85;;;130.50;;
38021;SDS011;23832;43.216;27.946;2023-03-09T21:33:43;142.07;;;133.48;;
38021;SDS011;23832;43.216;27.946;2023-03-09T21:35:45;142.98;;;134.45;;
38021;SDS011;23832;43.216;27.946;2023-03-09T21:37:48;143.23;;;134.63;;
38021;SDS011;23832;43.216;27.946;2023-03-09T21:39:50;140.50;;;131.95;;
38021;SDS011;23832;43.216;27.946;2023-03-09T21:41:54;145.77;;;136.18;;
38021;SDS011;23832;43.216;27.946;2023-03-09T21:43:56;142.68;;;134.07;;
38021;SDS011;23832;43.216;27.946;2023-03-09T21:45:58;144.35;;;135.40;;
38021;SDS011;23832;43.216;27.946;2023-03-09T21:48:02;138.77;;;130.25;;
38021;SDS011;23832;43.216;27.946;2023-03-09T21:50:09;144.25;;;135.30;;
38021;SDS011;23832;43.216;27.946;2023-03-09T21:52:12;145.80;;;137.10;;
38021;SDS011;23832;43.216;27.946;2023-03-09T21:54:14;142.82;;;133.90;;
38021;SDS011;23832;43.216;27.946;2023-03-09T21:56:17;145.30;;;136.38;;
38021;SDS011;23832;43.216;27.946;2023-03-09T21:58:19;141.65;;;133.13;;
38021;SDS011;23832;43.216;27.946;2023-03-09T22:00:21;143.70;;;134.85;;
38021;SDS011;23832;43.216;27.946;2023-03-09T22:02:25;142.20;;;133.43;;
38021;SDS011;23832;43.216;27.946;2023-03-09T22:04:30;141.43;;;132.40;;
38021;SDS011;23832;43.216;27.946;2023-03-09T22:06:32;141.75;;;133.07;;
38021;SDS011;23832;43.216;27.946;2023-03-09T22:08:34;143.85;;;135.13;;
38021;SDS011;23832;43.216;27.946;2023-03-09T22:10:36;142.85;;;134.15;;
38021;SDS011;23832;43.216;27.946;2023-03-09T22:12:38;142.70;;;134.10;;
38021;SDS011;23832;43.216;27.946;2023-03-09T22:14:43;141.10;;;132.60;;
38021;SDS011;23832;43.216;27.946;2023-03-09T22:16:45;141.95;;;133.25;;
38021;SDS011;23832;43.216;27.946;2023-03-09T22:18:47;140.77;;;132.00;;
38021;SDS011;23832;43.216;27.946;2023-03-09T22:21:00;141.90;;;133.40;;
38021;SDS011;23832;43.216;27.946;2023-03-09T22:23:03;146.00;;;137.10;;
38021;SDS011;23832;43.216;27.946;2023-03-09T22:25:05;146.65;;;137.63;;
38021;SDS011;23832;43.216;27.946;2023-03-09T22:27:09;146.77;;;137.88;;
38021;SDS011;23832;43.216;27.946;2023-03-09T22:29:11;143.50;;;134.90;;
38021;SDS011;23832;43.216;27.946;2023-03-09T22:31:14;143.95;;;135.18;;
38021;SDS011;23832;43.216;27.946;2023-03-09T22:33:17;145.98;;;137.02;;
38021;SDS011;23832;43.216;27.946;2023-03-09T22:35:20;147.00;;;138.15;;
38021;SDS011;23832;43.216;27.946;2023-03-09T22:37:23;143.88;;;134.77;;
38021;SDS011;23832;43.216;27.946;2023-03-09T22:39:25;146.02;;;137.15;;
38021;SDS011;23832;43.216;27.946;2023-03-09T22:41:28;147.32;;;138.18;;
38021;SDS011;23832;43.216;27.946;2023-03-09T22:43:30;144.93;;;135.93;;
38021;SDS011;23832;43.216;27.946;2023-03-09T22:45:35;148.00;;;138.88;;
38021;SDS011;23832;43.216;27.946;2023-03-09T22:47:37;143.98;;;134.98;;
38021;SDS011;23832;43.216;27.946;2023-03-09T22:49:40;149.25;;;139.68;;
38021;SDS011;23832;43.216;27.946;2023-03-09T22:51:42;145.20;;;135.93;;
38021;SDS011;23832;43.216;27.946;2023-03-09T22:53:46;145.45;;;136.38;;
38021;SDS011;23832;43.216;27.946;2023-03-09T22:55:51;145.68;;;136.77;;
38021;SDS011;23832;43.216;27.946;2023-03-09T22:57:53;148.60;;;139.30;;
38021;SDS011;23832;43.216;27.946;2023-03-09T22:59:56;148.60;;;138.95;;
38021;SDS011;23832;43.216;27.946;2023-03-09T23:01:58;149.00;;;139.60;;
38021;SDS011;23832;43.216;27.946;2023-03-09T23:04:00;143.13;;;134.25;;
38021;SDS011;23832;43.216;27.946;2023-03-09T23:06:03;144.90;;;136.02;;
38021;SDS011;23832;43.216;27.946;2023-03-09T23:08:06;145.98;;;137.30;;
38021;SDS011;23832;43.216;27.946;2023-03-09T23:10:11;144.93;;;135.95;;
38021;SDS011;23832;43.216;27.946;2023-03-09T23:12:13;148.63;;;139.38;;
38021;SDS011;23832;43.216;27.946;2023-03-09T23:14:15;148.63;;;139.70;;
38021;SDS011;23832;43.216;27.946;2023-03-09T23:16:21;145.60;;;136.73;;
38021;SDS011;23832;43.216;27.946;2023-03-09T23:18:23;144.45;;;135.55;;
38021;SDS011;23832;43.216;27.946;2023-03-09T23:20:25;142.15;;;133.35;;
38021;SDS011;23832;43.216;27.946;2023-03-09T23:22:27;141.77;;;133.18;;
38021;SDS011;23832;43.216;27.946;2023-03-09T23:24:29;142.90;;;134.30;;
38021;SDS011;23832;43.216;27.946;2023-03-09T23:26:33;147.68;;;138.73;;
38021;SDS011;23832;43.216;27.946;2023-03-09T23:28:36;144.02;;;135.35;;
38021;SDS011;23832;43.216;27.946;2023-03-09T23:30:38;146.25;;;137.32;;
38021;SDS011;23832;43.216;27.946;2023-03-09T23:32:40;142.82;;;134.35;;
38021;SDS011;23832;43.216;27.946;2023-03-09T23:34:42;144.63;;;135.98;;
38021;SDS011;23832;43.216;27.946;2023-03-09T23:36:44;143.27;;;134.98;;
38021;SDS011;23832;43.216;27.946;2023-03-09T23:38:47;145.38;;;136.88;;
38021;SDS011;23832;43.216;27.946;2023-03-09T23:40:50;142.77;;;134.10;;
38021;SDS011;23832;43.216;27.946;2023-03-09T23:42:54;143.85;;;135.38;;
38021;SDS011;23832;43.216;27.946;2023-03-09T23:44:56;144.65;;;135.80;;
38021;SDS011;23832;43.216;27.946;2023-03-09T23:46:58;143.55;;;135.15;;
38021;SDS011;23832;43.216;27.946;2023-03-09T23:49:00;144.10;;;135.40;;
38021;SDS011;23832;43.216;27.946;2023-03-09T23:51:04;141.38;;;133.10;;
38021;SDS011;23832;43.216;27.946;2023-03-09T23:53:07;142.60;;;134.30;;
38021;SDS011;23832;43.216;27.946;2023-03-09T23:55:09;142.80;;;134.48;;
38021;SDS011;23832;43.216;27.946;2023-03-09T23:57:11;140.15;;;132.02;;
38021;SDS011;23832;43.216;27.946;2023-03-09T23:59:16;142.20;;;133.95;;
